Time;durP1;ratioP1;P1;durP2;ratioP2;P2;SDS_P1;SDS_P2;PMS_P1;PMS_P2;Temp;Humidity;BMP_temperature;BMP_pressure;BME280_temperature;BME280_humidity;BME280_pressure;Samples;Min_cycle;Max_cycle;Signal;HPM_P1;HPM_P2
2023/07/23 00:01:21;;;;;;;18.95;6.60;;;;;;;30.12;45.60;99376.94;3099269;28;20054;-72
2023/07/23 00:02:53;;;;;;;16.27;7.03;;;;;;;30.03;45.88;99378.16;3094568;28;20218;-73
2023/07/23 00:04:23;;;;;;;22.58;6.97;;;;;;;29.99;45.99;99368.84;3109510;28;20046;-73
2023/07/23 00:05:55;;;;;;;15.63;6.50;;;;;;;29.97;46.08;99370.94;3109359;28;20152;-73
2023/07/23 00:07:26;;;;;;;26.50;7.47;;;;;;;29.95;45.84;99363.06;3109537;28;20050;-73
2023/07/23 00:08:59;;;;;;;22.95;8.10;;;;;;;29.96;46.22;99371.94;3109404;28;20045;-73
2023/07/23 00:10:30;;;;;;;;;;;;;;;29.77;46.17;99378.97;3103397;28;20057;-72
2023/07/23 00:12:02;;;;;;;34.33;7.22;;;;;;;29.86;46.37;99383.09;3106957;28;19925;-73
2023/07/23 00:13:33;;;;;;;25.30;7.00;;;;;;;29.90;45.94;99384.31;3107395;28;20058;-73
2023/07/23 00:15:06;;;;;;;27.20;7.63;;;;;;;29.92;46.40;99384.97;3097244;28;20069;-73
2023/07/23 00:16:36;;;;;;;27.02;7.43;;;;;;;29.96;46.04;99390.75;3105318;28;20054;-73
2023/07/23 00:18:08;;;;;;;22.92;6.40;;;;;;;29.98;45.89;99399.41;3109218;28;20053;-72
2023/07/23 00:19:40;;;;;;;29.40;6.72;;;;;;;29.97;46.20;99398.59;3109314;28;20515;-72
2023/07/23 00:21:11;;;;;;;23.30;7.60;;;;;;;29.93;46.08;99400.88;3108991;28;20065;-73
2023/07/23 00:22:43;;;;;;;23.15;6.97;;;;;;;29.84;46.41;99396.69;3109277;28;20057;-73
2023/07/23 00:24:15;;;;;;;25.05;8.20;;;;;;;29.77;46.21;99406.63;3109203;28;20049;-73
2023/07/23 00:25:47;;;;;;;25.25;7.93;;;;;;;29.65;46.58;99401.00;3109371;28;20132;-73
2023/07/23 00:27:18;;;;;;;31.75;7.80;;;;;;;29.59;46.39;99404.47;3109173;28;20538;-72
2023/07/23 00:28:49;;;;;;;23.58;7.80;;;;;;;29.53;46.68;99394.56;3103301;28;20062;-73
2023/07/23 00:30:20;;;;;;;22.50;7.50;;;;;;;29.51;47.05;99401.16;3098426;28;20050;-73
2023/07/23 00:31:52;;;;;;;23.35;6.88;;;;;;;29.50;46.75;99404.88;3109205;28;20057;-73
2023/07/23 00:33:23;;;;;;;21.15;8.45;;;;;;;29.46;46.71;99401.75;3109057;28;20053;-72
2023/07/23 00:34:55;;;;;;;17.95;7.00;;;;;;;29.45;46.73;99402.78;3109138;28;20050;-73
2023/07/23 00:36:26;;;;;;;20.38;6.82;;;;;;;29.43;46.51;99404.81;3108847;28;20443;-73
2023/07/23 00:37:57;;;;;;;25.17;7.05;;;;;;;29.44;46.56;99411.88;3108535;28;20054;-73
2023/07/23 00:39:30;;;;;;;18.80;6.95;;;;;;;29.46;46.76;99413.31;3109072;28;20080;-73
2023/07/23 00:41:01;;;;;;;16.92;6.55;;;;;;;29.45;46.76;99414.34;3099293;28;20519;-73
2023/07/23 00:42:33;;;;;;;28.33;7.50;;;;;;;29.45;46.96;99410.81;3105345;28;20056;-73
2023/07/23 00:44:05;;;;;;;19.45;6.80;;;;;;;29.44;46.61;99419.91;3096809;28;20051;-73
2023/07/23 00:45:36;;;;;;;24.02;6.07;;;;;;;29.44;46.46;99412.69;3097689;28;20050;-73
2023/07/23 00:47:08;;;;;;;26.20;7.53;;;;;;;29.43;46.37;99411.03;3102969;28;20187;-72
2023/07/23 00:48:39;;;;;;;27.85;7.40;;;;;;;29.42;46.46;99405.88;3108643;28;20528;-73
2023/07/23 00:50:13;;;;;;;20.30;5.60;;;;;;;29.41;46.30;99415.78;3109124;28;20137;-73
2023/07/23 00:51:44;;;;;;;20.70;6.50;;;;;;;29.39;46.21;99417.81;3107402;28;20057;-72
2023/07/23 00:53:17;;;;;;;17.20;6.13;;;;;;;29.38;46.47;99412.66;3108835;28;20631;-73
2023/07/23 00:54:49;;;;;;;14.68;6.10;;;;;;;29.39;46.23;99423.19;3108655;28;20144;-73
2023/07/23 00:56:21;;;;;;;22.10;6.03;;;;;;;29.37;46.14;99430.63;3098343;28;20073;-72
2023/07/23 00:57:53;;;;;;;23.17;6.80;;;;;;;29.39;46.41;99441.13;3102654;28;20054;-73
2023/07/23 00:59:25;;;;;;;24.50;7.25;;;;;;;29.38;46.32;99439.50;3096811;28;20619;-73
2023/07/23 01:00:56;;;;;;;17.85;6.20;;;;;;;29.35;46.26;99440.72;3108672;28;20074;-73
2023/07/23 01:02:28;;;;;;;17.17;5.85;;;;;;;29.36;46.23;99444.22;3093882;28;20500;-73
2023/07/23 01:03:59;;;;;;;24.67;6.13;;;;;;;29.36;46.10;99444.22;3107304;28;20527;-73
2023/07/23 01:05:31;;;;;;;24.77;5.95;;;;;;;29.34;46.18;99447.09;3108485;28;20069;-73
2023/07/23 01:07:04;;;;;;;25.05;6.50;;;;;;;29.32;46.58;99446.47;3100037;28;20082;-73
2023/07/23 01:08:37;;;;;;;14.50;5.47;;;;;;;29.29;46.60;99456.78;3105958;28;20125;-73
2023/07/23 01:10:10;;;;;;;19.80;6.22;;;;;;;29.27;46.66;99453.47;3108681;28;20547;-72
2023/07/23 01:11:42;;;;;;;21.95;7.03;;;;;;;29.26;46.91;99458.00;3108441;28;20542;-73
2023/07/23 01:13:14;;;;;;;15.70;6.80;;;;;;;29.25;47.14;99450.97;3096983;28;20058;-73
2023/07/23 01:14:45;;;;;;;16.15;5.00;;;;;;;29.25;47.23;99449.13;3102917;28;20076;-73
2023/07/23 01:16:16;;;;;;;15.98;6.00;;;;;;;29.26;46.92;99449.97;3108678;28;20543;-73
2023/07/23 01:17:49;;;;;;;29.05;6.45;;;;;;;29.26;47.47;99441.91;3108486;28;20057;-72
2023/07/23 01:19:21;;;;;;;24.90;6.53;;;;;;;29.22;47.40;99438.81;3108775;28;20057;-73
2023/07/23 01:20:52;;;;;;;18.33;6.05;;;;;;;29.20;47.57;99442.72;3108541;28;20062;-73
2023/07/23 01:22:26;;;;;;;22.42;6.85;;;;;;;29.21;47.49;99439.81;3108469;28;20087;-73
2023/07/23 01:23:56;;;;;;;;;;;;;;;29.04;47.83;99451.88;3108929;28;20084;-72
2023/07/23 01:25:28;;;;;;;19.80;6.05;;;;;;;29.11;47.48;99450.09;3108674;28;19925;-73
2023/07/23 01:26:59;;;;;;;22.90;7.68;;;;;;;29.15;47.58;99454.03;3103603;28;20050;-73
2023/07/23 01:28:31;;;;;;;29.63;6.45;;;;;;;29.18;47.51;99453.63;3096338;28;20050;-72
2023/07/23 01:30:02;;;;;;;23.27;6.55;;;;;;;29.19;47.78;99462.50;3108790;28;20061;-72
2023/07/23 01:31:33;;;;;;;27.40;6.50;;;;;;;29.19;47.94;99459.81;3108488;28;20459;-73
2023/07/23 01:33:05;;;;;;;25.35;6.30;;;;;;;29.16;48.09;99463.72;3108120;28;20057;-73
2023/07/23 01:34:38;;;;;;;18.35;6.90;;;;;;;29.15;47.86;99467.44;3108441;28;20434;-73
2023/07/23 01:36:10;;;;;;;27.88;6.60;;;;;;;29.13;47.77;99468.66;3108035;28;20049;-72
2023/07/23 01:37:47;;;;;;;24.48;6.93;;;;;;;29.11;48.21;99471.53;3108520;28;20566;-73
2023/07/23 01:39:17;;;;;;;20.40;6.57;;;;;;;29.04;47.97;99473.34;3108076;28;20519;-73
2023/07/23 01:40:50;;;;;;;23.80;6.45;;;;;;;29.03;48.35;99480.56;3100231;28;20060;-73
2023/07/23 01:42:21;;;;;;;20.33;6.50;;;;;;;29.00;48.04;99480.09;3096232;28;20050;-73
2023/07/23 01:43:54;;;;;;;21.88;5.80;;;;;;;28.95;48.38;99472.63;3102649;28;20378;-73
2023/07/23 01:45:28;;;;;;;21.80;6.13;;;;;;;28.92;48.52;99474.88;3102669;28;20050;-73
2023/07/23 01:47:00;;;;;;;23.30;6.03;;;;;;;28.87;48.46;99474.63;3101521;28;20050;-73
2023/07/23 01:48:30;;;;;;;21.10;6.03;;;;;;;28.85;48.81;99472.16;3108374;28;20048;-73
2023/07/23 01:50:02;;;;;;;19.23;6.45;;;;;;;28.83;48.93;99476.06;3108018;28;20045;-73
2023/07/23 01:51:34;;;;;;;22.40;6.43;;;;;;;28.80;48.68;99470.06;3106559;28;20061;-73
2023/07/23 01:53:07;;;;;;;17.20;5.75;;;;;;;28.81;48.55;99465.56;3107874;28;20647;-73
2023/07/23 01:54:39;;;;;;;19.58;6.85;;;;;;;28.79;49.05;99472.94;3108390;28;20061;-72
2023/07/23 01:56:10;;;;;;;21.20;7.40;;;;;;;28.81;48.66;99478.94;3102917;28;20042;-73
2023/07/23 01:57:41;;;;;;;25.00;6.70;;;;;;;28.75;48.75;99467.16;3084103;28;20051;-73
2023/07/23 01:59:12;;;;;;;25.52;6.93;;;;;;;28.72;48.84;99475.59;3106843;28;20058;-74
2023/07/23 02:00:44;;;;;;;20.67;6.20;;;;;;;28.70;48.92;99479.47;3108301;28;20535;-74
2023/07/23 02:02:15;;;;;;;19.48;5.97;;;;;;;28.68;49.20;99479.66;3102331;28;20049;-73
2023/07/23 02:03:46;;;;;;;22.10;6.20;;;;;;;28.71;48.83;99478.44;3104154;28;20056;-73
2023/07/23 02:05:19;;;;;;;20.45;5.95;;;;;;;28.75;49.11;99485.91;3108117;28;20052;-73
2023/07/23 02:06:49;;;;;;;26.45;6.63;;;;;;;28.73;49.23;99485.28;3108061;28;20107;-73
2023/07/23 02:08:23;;;;;;;19.40;6.05;;;;;;;28.71;48.85;99487.31;3107978;28;20093;-73
2023/07/23 02:09:53;;;;;;;17.63;6.70;;;;;;;28.70;48.99;99487.50;3108253;28;20060;-74
2023/07/23 02:11:25;;;;;;;23.95;6.35;;;;;;;28.69;49.08;99484.00;3098470;28;20046;-73
2023/07/23 02:12:56;;;;;;;12.13;5.90;;;;;;;28.69;49.29;99478.66;3100580;28;20439;-73
2023/07/23 02:14:29;;;;;;;21.58;7.05;;;;;;;28.66;49.14;99479.03;3108089;28;20046;-73
2023/07/23 02:16:01;;;;;;;16.88;6.50;;;;;;;28.57;49.27;99475.69;3108115;28;20132;-73
2023/07/23 02:17:32;;;;;;;22.75;7.28;;;;;;;28.57;49.38;99480.19;3108376;28;20056;-74
2023/07/23 02:19:04;;;;;;;22.92;7.30;;;;;;;28.55;48.90;99482.25;3107963;28;20050;-73
2023/07/23 02:20:36;;;;;;;22.13;6.50;;;;;;;28.53;48.68;99474.38;3107838;28;20058;-72
2023/07/23 02:22:08;;;;;;;31.02;7.05;;;;;;;28.51;48.84;99475.59;3108239;28;20060;-73
2023/07/23 02:23:40;;;;;;;24.98;7.75;;;;;;;28.52;48.76;99474.59;3108495;28;20065;-73
2023/07/23 02:25:12;;;;;;;18.35;6.55;;;;;;;28.49;48.21;99475.81;3104689;28;20542;-72
2023/07/23 02:26:43;;;;;;;21.60;6.20;;;;;;;28.41;48.38;99470.56;3095801;28;20392;-73
2023/07/23 02:28:14;;;;;;;18.98;6.32;;;;;;;28.37;48.13;99480.00;3105756;28;20048;-73
2023/07/23 02:29:45;;;;;;;18.42;6.00;;;;;;;28.36;48.47;99475.66;3108174;28;20060;-73
2023/07/23 02:31:17;;;;;;;20.67;6.53;;;;;;;28.34;47.90;99465.13;3107947;28;20503;-73
2023/07/23 02:32:48;;;;;;;20.00;6.68;;;;;;;28.29;48.12;99466.75;3107918;28;20061;-73
2023/07/23 02:34:20;;;;;;;25.02;6.60;;;;;;;28.27;48.15;99480.31;3108166;28;20046;-73
2023/07/23 02:35:51;;;;;;;22.92;6.15;;;;;;;28.29;47.91;99483.63;3107638;28;20046;-73
2023/07/23 02:37:22;;;;;;;17.40;6.20;;;;;;;28.31;48.18;99483.44;3109870;28;20091;-73
2023/07/23 02:38:56;;;;;;;15.07;6.05;;;;;;;28.31;47.69;99481.59;3110426;28;20046;-73
2023/07/23 02:40:26;;;;;;;;;;;;;;;28.10;48.40;99492.28;3106522;28;20050;-73
2023/07/23 02:41:58;;;;;;;15.38;6.13;;;;;;;28.17;48.10;99500.41;3110544;28;19935;-73
2023/07/23 02:43:30;;;;;;;21.35;5.63;;;;;;;28.23;47.84;99499.63;3110088;28;20436;-73
2023/07/23 02:45:00;;;;;;;18.92;5.93;;;;;;;28.28;48.21;99506.06;3110461;28;20050;-74
2023/07/23 02:46:32;;;;;;;22.50;5.90;;;;;;;28.30;47.88;99511.22;3110615;28;20049;-73
2023/07/23 02:48:03;;;;;;;16.88;6.18;;;;;;;28.31;48.18;99513.72;3104619;28;20523;-73
2023/07/23 02:49:35;;;;;;;24.55;6.18;;;;;;;28.30;48.12;99519.25;3086211;28;20448;-73
2023/07/23 02:51:06;;;;;;;24.45;6.88;;;;;;;28.28;48.38;99516.78;3108315;28;20512;-73
2023/07/23 02:52:38;;;;;;;23.05;5.90;;;;;;;28.29;48.23;99520.28;3109318;28;20060;-73
2023/07/23 02:54:11;;;;;;;21.05;6.40;;;;;;;28.31;48.26;99520.94;3109403;28;20061;-73
2023/07/23 02:55:42;;;;;;;28.67;5.93;;;;;;;28.28;48.50;99516.78;3098128;28;20679;-73
2023/07/23 02:57:14;;;;;;;17.63;5.60;;;;;;;28.28;48.43;99516.78;3107233;28;20095;-73
2023/07/23 02:58:45;;;;;;;25.33;6.60;;;;;;;28.24;48.23;99528.06;3107673;28;20046;-73
2023/07/23 03:00:18;;;;;;;16.45;5.85;;;;;;;28.20;48.41;99527.63;3105661;28;20049;-72
2023/07/23 03:01:50;;;;;;;26.08;6.30;;;;;;;28.12;48.91;99527.72;3103232;28;20050;-73
2023/07/23 03:03:22;;;;;;;23.85;6.28;;;;;;;28.09;48.56;99525.44;3100471;28;20448;-73
2023/07/23 03:04:53;;;;;;;22.80;6.10;;;;;;;28.11;48.67;99534.09;3110116;28;20060;-72
2023/07/23 03:06:24;;;;;;;27.13;7.10;;;;;;;28.13;48.65;99530.22;3109851;28;20054;-72
2023/07/23 03:07:56;;;;;;;21.67;6.30;;;;;;;28.16;48.68;99534.38;3109812;28;20507;-73
2023/07/23 03:09:28;;;;;;;23.42;5.80;;;;;;;28.17;48.93;99536.03;3102877;28;20058;-73
2023/07/23 03:11:00;;;;;;;23.92;6.40;;;;;;;28.15;48.89;99532.69;3100000;28;20060;-73
2023/07/23 03:12:31;;;;;;;20.85;7.60;;;;;;;28.17;48.58;99536.03;3108485;28;20531;-72
2023/07/23 03:14:03;;;;;;;18.83;6.18;;;;;;;28.17;48.82;99533.34;3097518;28;20054;-73
2023/07/23 03:15:34;;;;;;;22.40;6.30;;;;;;;28.17;49.01;99538.69;3098103;28;20063;-72
2023/07/23 03:17:06;;;;;;;27.38;6.25;;;;;;;28.19;49.02;99542.03;3109817;28;20046;-73
2023/07/23 03:18:38;;;;;;;23.38;6.78;;;;;;;28.20;48.98;99549.03;3109677;28;20050;-72
2023/07/23 03:20:10;;;;;;;21.38;6.18;;;;;;;28.18;49.09;99548.38;3110000;28;20124;-73
2023/07/23 03:21:42;;;;;;;23.80;6.50;;;;;;;28.15;48.96;99543.41;3109921;28;20100;-73
2023/07/23 03:23:13;;;;;;;25.65;6.40;;;;;;;28.19;49.33;99550.06;3109110;28;20320;-73
2023/07/23 03:24:46;;;;;;;27.33;5.70;;;;;;;28.17;49.13;99538.69;3097702;28;20058;-73
2023/07/23 03:26:18;;;;;;;27.08;6.55;;;;;;;28.21;49.10;99550.69;3105582;28;20068;-73
2023/07/23 03:27:49;;;;;;;28.23;8.02;;;;;;;28.20;49.26;99549.03;3109905;28;20416;-73
2023/07/23 03:29:21;;;;;;;48.20;15.00;;;;;;;28.22;48.91;99554.19;3109495;28;20112;-72
2023/07/23 03:30:52;;;;;;;24.38;7.65;;;;;;;28.19;49.11;99563.44;3110037;28;20050;-73
2023/07/23 03:32:23;;;;;;;22.67;7.47;;;;;;;28.17;49.21;99553.94;3110148;28;20049;-73
2023/07/23 03:33:55;;;;;;;24.38;7.07;;;;;;;28.18;49.24;99558.28;3109536;28;20111;-73
2023/07/23 03:35:27;;;;;;;30.98;7.43;;;;;;;28.20;49.49;99564.28;3109778;28;20054;-73
2023/07/23 03:36:59;;;;;;;20.52;7.18;;;;;;;28.20;49.40;99565.09;3109615;28;20061;-73
2023/07/23 03:38:30;;;;;;;30.75;7.93;;;;;;;28.20;49.63;99577.66;3103763;28;20046;-73
2023/07/23 03:40:03;;;;;;;25.00;7.88;;;;;;;28.20;49.36;99573.13;3097531;28;20057;-73
2023/07/23 03:41:34;;;;;;;20.42;7.80;;;;;;;28.21;49.62;99585.50;3097717;28;20054;-73
2023/07/23 03:43:06;;;;;;;20.55;6.95;;;;;;;28.22;49.71;99589.84;3109541;28;20788;-72
2023/07/23 03:44:37;;;;;;;19.88;7.18;;;;;;;28.23;49.25;99596.84;3101398;28;20054;-72
2023/07/23 03:46:09;;;;;;;19.85;7.32;;;;;;;28.27;49.72;99603.47;3097773;28;20137;-73
2023/07/23 03:47:40;;;;;;;21.60;6.20;;;;;;;28.27;49.76;99603.47;3103890;28;20503;-72
2023/07/23 03:49:12;;;;;;;24.92;6.47;;;;;;;28.27;49.59;99608.81;3104567;28;20050;-73
2023/07/23 03:50:44;;;;;;;21.02;5.90;;;;;;;28.23;49.73;99601.38;3104448;28;20523;-73
2023/07/23 03:52:15;;;;;;;23.83;6.95;;;;;;;28.27;49.50;99602.66;3102338;28;20054;-73
2023/07/23 03:53:47;;;;;;;31.58;6.97;;;;;;;28.25;49.71;99597.50;3092962;28;20062;-73
2023/07/23 03:55:20;;;;;;;23.98;7.10;;;;;;;28.28;49.85;99599.78;3093527;28;20156;-73
2023/07/23 03:56:52;;;;;;;21.33;6.95;;;;;;;28.28;49.90;99601.66;3097550;28;20527;-73
2023/07/23 03:58:23;;;;;;;22.33;6.85;;;;;;;28.30;50.06;99607.63;3104227;28;20053;-73
2023/07/23 03:59:54;;;;;;;30.63;6.40;;;;;;;28.29;49.70;99608.66;3104195;28;20420;-72
2023/07/23 04:01:27;;;;;;;20.48;7.10;;;;;;;28.31;49.90;99617.34;3100525;28;20189;-73
2023/07/23 04:02:58;;;;;;;24.88;6.47;;;;;;;28.32;49.75;99609.09;3090197;28;20608;-71
2023/07/23 04:04:30;;;;;;;24.40;6.10;;;;;;;28.33;50.03;99609.94;3104230;28;20444;-73
2023/07/23 04:06:02;;;;;;;26.85;7.45;;;;;;;28.34;50.08;99616.97;3104278;28;20054;-74
2023/07/23 04:07:34;;;;;;;32.67;7.87;;;;;;;28.33;49.91;99624.13;3099326;28;20145;-72
2023/07/23 04:09:06;;;;;;;15.27;6.53;;;;;;;28.31;49.80;99626.19;3092096;28;20050;-71
2023/07/23 04:10:38;;;;;;;23.15;7.40;;;;;;;28.33;49.88;99629.50;3103645;28;20049;-72
2023/07/23 04:12:11;;;;;;;23.95;7.28;;;;;;;28.30;49.74;99621.00;3104254;28;20582;-72
2023/07/23 04:13:42;;;;;;;24.42;7.03;;;;;;;28.30;49.97;99623.69;3103925;28;20077;-71
2023/07/23 04:15:14;;;;;;;21.10;6.97;;;;;;;28.32;49.74;99630.53;3104098;28;20064;-72
2023/07/23 04:16:45;;;;;;;22.55;6.93;;;;;;;28.36;49.46;99633.66;3104205;28;20433;-73
2023/07/23 04:18:17;;;;;;;18.95;7.22;;;;;;;28.41;49.77;99633.09;3104090;28;20054;-73
2023/07/23 04:19:48;;;;;;;20.73;7.13;;;;;;;28.40;49.68;99631.44;3104032;28;20069;-72
2023/07/23 04:21:21;;;;;;;24.88;7.68;;;;;;;28.40;49.39;99634.94;3103674;28;20053;-73
2023/07/23 04:22:53;;;;;;;16.55;6.55;;;;;;;28.40;49.56;99634.13;3093472;28;20164;-73
2023/07/23 04:24:25;;;;;;;32.50;6.72;;;;;;;28.42;49.65;99632.09;3097498;28;20053;-72
2023/07/23 04:25:57;;;;;;;22.33;7.47;;;;;;;28.45;49.78;99631.72;3104084;28;20053;-73
2023/07/23 04:27:29;;;;;;;25.45;6.82;;;;;;;28.42;49.54;99638.28;3103777;28;20050;-73
2023/07/23 04:29:00;;;;;;;25.80;7.63;;;;;;;28.39;49.41;99632.44;3103777;28;20108;-73
2023/07/23 04:30:33;;;;;;;17.02;6.03;;;;;;;28.41;49.56;99638.47;3104082;28;20515;-73
2023/07/23 04:32:05;;;;;;;25.20;6.82;;;;;;;28.40;49.39;99634.94;3103825;28;20062;-72
2023/07/23 04:33:37;;;;;;;16.42;6.40;;;;;;;28.41;49.04;99633.94;3103718;28;20252;-73
2023/07/23 04:35:08;;;;;;;22.73;6.45;;;;;;;28.43;48.79;99631.09;3103684;28;20064;-72
2023/07/23 04:36:40;;;;;;;14.50;5.60;;;;;;;28.46;48.33;99641.44;3099961;28;20119;-72
2023/07/23 04:38:11;;;;;;;23.02;5.57;;;;;;;28.44;48.18;99643.47;3091872;28;20499;-72
2023/07/23 04:39:43;;;;;;;27.80;5.32;;;;;;;28.39;47.18;99651.19;3102844;28;20132;-72
2023/07/23 04:41:15;;;;;;;23.88;5.55;;;;;;;28.38;46.88;99646.88;3092977;28;20074;-73
2023/07/23 04:42:47;;;;;;;19.23;5.93;;;;;;;28.31;46.55;99652.97;3101443;28;20092;-73
2023/07/23 04:44:18;;;;;;;22.13;6.45;;;;;;;28.29;46.27;99646.16;3103336;28;20057;-73
2023/07/23 04:45:50;;;;;;;31.90;6.57;;;;;;;28.26;46.11;99658.06;3095549;28;20097;-73
2023/07/23 04:47:22;;;;;;;22.05;5.32;;;;;;;28.23;46.38;99647.72;3099438;28;20068;-72
2023/07/23 04:48:53;;;;;;;21.42;6.60;;;;;;;28.23;46.29;99650.41;3103217;28;20065;-72
2023/07/23 04:50:25;;;;;;;30.85;5.43;;;;;;;28.20;46.09;99645.41;3103711;28;20046;-72
2023/07/23 04:51:56;;;;;;;22.52;5.50;;;;;;;28.20;46.21;99650.78;3098894;28;20053;-73
2023/07/23 04:53:28;;;;;;;22.00;5.60;;;;;;;28.16;46.04;99644.16;3103284;28;20089;-72
2023/07/23 04:55:01;;;;;;;22.13;5.57;;;;;;;28.16;46.13;99644.16;3097057;28;20068;-73
2023/07/23 04:56:33;;;;;;;25.80;5.53;;;;;;;28.15;46.28;99647.81;3103743;28;20146;-73
2023/07/23 04:58:05;;;;;;;22.80;5.53;;;;;;;28.15;46.20;99650.50;3103652;28;20136;-72
2023/07/23 04:59:36;;;;;;;19.55;5.95;;;;;;;28.21;46.20;99652.44;3102999;28;20128;-73
2023/07/23 05:01:09;;;;;;;16.83;4.70;;;;;;;28.27;45.63;99648.16;3102352;28;20092;-73
2023/07/23 05:02:40;;;;;;;19.27;5.78;;;;;;;28.31;46.02;99657.50;3087514;28;20138;-72
2023/07/23 05:04:12;;;;;;;14.93;5.10;;;;;;;28.35;45.61;99662.28;3103688;28;20061;-73
2023/07/23 05:05:46;;;;;;;19.42;5.50;;;;;;;28.39;45.63;99648.50;3100256;28;20482;-72
2023/07/23 05:07:17;;;;;;;21.90;4.80;;;;;;;28.45;45.53;99658.50;3091304;28;20108;-73
2023/07/23 05:08:48;;;;;;;22.77;5.85;;;;;;;28.48;45.57;99658.94;3101941;28;20143;-72
2023/07/23 05:10:20;;;;;;;20.05;6.85;;;;;;;28.51;45.38;99653.22;3103268;28;20054;-73
2023/07/23 05:11:54;;;;;;;17.10;5.20;;;;;;;28.56;45.70;99655.34;3103174;28;20068;-72
2023/07/23 05:13:26;;;;;;;24.83;6.45;;;;;;;28.60;45.65;99656.63;3103107;28;20057;-71
2023/07/23 05:15:10;;;;;;;27.65;5.68;;;;;;;28.65;45.35;99653.38;3103174;28;20053;-71
2023/07/23 05:16:41;;;;;;;23.33;5.05;;;;;;;28.68;45.44;99658.34;3103418;28;20166;-73
2023/07/23 05:18:13;;;;;;;12.18;4.78;;;;;;;28.73;45.50;99656.78;3103488;28;20530;-73
2023/07/23 05:19:44;;;;;;;18.25;4.82;;;;;;;28.78;45.39;99659.72;3102960;28;20445;-73
2023/07/23 05:21:15;;;;;;;20.10;4.90;;;;;;;28.80;45.45;99651.47;3092228;28;20076;-72
2023/07/23 05:22:46;;;;;;;18.23;5.47;;;;;;;28.82;45.45;99645.94;3096953;28;20058;-73
2023/07/23 05:24:18;;;;;;;21.35;5.35;;;;;;;28.87;45.09;99649.69;3103344;28;20049;-73
2023/07/23 05:25:49;;;;;;;19.90;5.55;;;;;;;28.92;45.01;99654.47;3103560;28;20140;-72
2023/07/23 05:27:23;;;;;;;18.77;4.70;;;;;;;29.01;44.98;99648.78;3103021;28;20045;-73
2023/07/23 05:28:54;;;;;;;21.52;5.03;;;;;;;29.06;44.97;99645.56;3103186;28;20062;-73
2023/07/23 05:30:25;;;;;;;23.58;5.45;;;;;;;29.12;44.59;99652.81;3103287;28;20474;-73
2023/07/23 05:31:56;;;;;;;24.55;5.40;;;;;;;29.15;44.45;99647.09;3103211;28;20062;-72
2023/07/23 05:33:28;;;;;;;18.65;4.82;;;;;;;29.18;44.51;99653.91;3102981;28;20064;-73
2023/07/23 05:34:59;;;;;;;27.15;6.38;;;;;;;29.21;44.49;99654.34;3099636;28;20050;-73
2023/07/23 05:36:31;;;;;;;25.30;5.60;;;;;;;29.28;44.00;99659.75;3091007;28;20054;-73
2023/07/23 05:38:03;;;;;;;15.65;5.30;;;;;;;29.32;44.28;99661.03;3102284;28;20057;-73
2023/07/23 05:39:35;;;;;;;18.30;4.85;;;;;;;29.37;44.11;99653.25;3103075;28;20172;-73
2023/07/23 05:41:06;;;;;;;17.65;4.68;;;;;;;29.42;43.95;99656.16;3092755;28;20086;-73
2023/07/23 05:42:39;;;;;;;27.60;4.25;;;;;;;29.46;44.04;99653.91;3090807;28;20512;-73
2023/07/23 05:44:10;;;;;;;16.52;4.30;;;;;;;29.50;44.16;99649.84;3090942;28;20058;-73
2023/07/23 05:45:42;;;;;;;22.30;4.65;;;;;;;29.56;44.01;99653.59;3091836;28;20443;-72
2023/07/23 05:47:13;;;;;;;22.83;5.65;;;;;;;29.57;43.64;99647.19;3090966;28;20053;-72
2023/07/23 05:48:45;;;;;;;24.42;4.82;;;;;;;29.59;44.09;99653.19;3097026;28;20061;-72
2023/07/23 05:50:16;;;;;;;16.25;4.95;;;;;;;29.63;43.81;99659.84;3093649;28;20054;-72
2023/07/23 05:51:49;;;;;;;20.92;5.15;;;;;;;29.67;43.74;99659.28;3095467;28;20061;-72
2023/07/23 05:53:19;;;;;;;18.60;5.47;;;;;;;29.71;44.04;99659.69;3102907;28;20045;-73
2023/07/23 05:54:51;;;;;;;19.90;4.72;;;;;;;29.76;43.56;99654.56;3102897;28;20143;-72
2023/07/23 05:56:22;;;;;;;12.88;4.47;;;;;;;29.81;43.83;99651.28;3103281;28;20057;-73
2023/07/23 05:57:55;;;;;;;18.50;5.13;;;;;;;29.86;43.78;99648.84;3103101;28;20541;-72
2023/07/23 05:59:26;;;;;;;;;;;;;;;29.74;43.94;99645.88;3103033;28;20054;-72
2023/07/23 06:00:58;;;;;;;16.17;5.00;;;;;;;29.83;43.75;99642.00;3103234;28;20107;-73
2023/07/23 06:02:29;;;;;;;16.27;4.70;;;;;;;29.91;43.53;99638.34;3087987;28;20047;-72
2023/07/23 06:04:01;;;;;;;20.35;4.88;;;;;;;29.95;43.73;99639.59;3097434;28;20109;-72
2023/07/23 06:05:32;;;;;;;13.82;4.95;;;;;;;30.00;43.46;99634.47;3091031;28;20112;-72
2023/07/23 06:07:04;;;;;;;16.08;4.38;;;;;;;30.09;43.73;99627.88;3100321;28;20053;-72
2023/07/23 06:08:36;;;;;;;20.27;4.80;;;;;;;30.17;43.81;99616.13;3102943;28;20053;-73
2023/07/23 06:10:07;;;;;;;20.00;5.15;;;;;;;30.27;43.29;99623.84;3102667;28;20053;-72
2023/07/23 06:11:39;;;;;;;17.15;5.78;;;;;;;30.27;43.58;99626.53;3101811;28;20455;-72
2023/07/23 06:13:12;;;;;;;14.90;4.78;;;;;;;30.26;43.71;99622.19;3102464;28;20052;-72
2023/07/23 06:14:44;;;;;;;20.35;5.35;;;;;;;30.26;43.62;99631.09;3102847;28;20170;-71
2023/07/23 06:16:15;;;;;;;18.10;4.68;;;;;;;30.28;43.72;99629.00;3102924;28;20050;-72
2023/07/23 06:17:47;;;;;;;18.98;5.07;;;;;;;30.33;43.52;99620.38;3102561;28;20104;-72
2023/07/23 06:19:18;;;;;;;13.60;4.90;;;;;;;30.37;43.53;99618.91;3095042;28;20443;-72
2023/07/23 06:20:50;;;;;;;20.75;5.68;;;;;;;30.40;43.47;99621.19;3093523;28;20065;-72
2023/07/23 06:22:21;;;;;;;18.85;5.07;;;;;;;30.45;43.44;99621.44;3102862;28;20127;-72
2023/07/23 06:23:53;;;;;;;18.38;5.13;;;;;;;30.48;43.38;99618.34;3102835;28;20054;-72
2023/07/23 06:25:25;;;;;;;19.83;5.20;;;;;;;30.52;43.17;99618.75;3102779;28;20061;-72
2023/07/23 06:26:57;;;;;;;17.02;4.82;;;;;;;30.60;43.21;99618.56;3102827;28;20211;-72
2023/07/23 06:28:30;;;;;;;23.17;5.68;;;;;;;30.67;43.34;99621.25;3078589;28;20066;-72
2023/07/23 06:30:01;;;;;;;15.02;5.28;;;;;;;30.73;42.92;99615.91;3101747;28;20050;-72
2023/07/23 06:31:33;;;;;;;24.20;6.03;;;;;;;30.78;42.87;99615.28;3102794;28;20058;-72
2023/07/23 06:33:05;;;;;;;19.42;5.85;;;;;;;30.81;42.72;99612.22;3096599;28;20077;-72
2023/07/23 06:34:35;;;;;;;15.10;5.25;;;;;;;30.86;42.62;99619.69;3090751;28;20141;-72
2023/07/23 06:36:08;;;;;;;19.20;5.25;;;;;;;30.90;42.63;99619.03;3098976;28;20092;-72
2023/07/23 06:37:38;;;;;;;16.08;5.20;;;;;;;30.94;42.56;99609.56;3102701;28;20554;-72
2023/07/23 06:39:10;;;;;;;13.25;4.88;;;;;;;31.04;42.63;99620.72;3102706;28;20160;-72
2023/07/23 06:40:45;;;;;;;20.17;5.32;;;;;;;31.13;42.27;99621.34;3095544;28;20054;-72
2023/07/23 06:42:16;;;;;;;18.13;5.65;;;;;;;31.18;41.78;99612.66;3096350;28;20045;-72
2023/07/23 06:43:49;;;;;;;15.57;4.68;;;;;;;31.26;41.82;99621.31;3099487;28;20127;-72
2023/07/23 06:45:21;;;;;;;22.40;5.55;;;;;;;31.33;41.89;99615.94;3094861;28;20137;-72
2023/07/23 06:46:52;;;;;;;20.92;7.55;;;;;;;31.43;41.72;99619.06;3102640;28;20148;-72
2023/07/23 06:48:28;;;;;;;17.70;5.82;;;;;;;31.52;41.43;99616.16;3095382;28;20069;-72
2023/07/23 06:50:00;;;;;;;14.88;5.68;;;;;;;31.63;41.01;99623.59;3092821;28;20096;-72
2023/07/23 06:51:30;;;;;;;22.27;6.00;;;;;;;31.70;40.66;99619.00;3100685;28;20054;-72
2023/07/23 06:53:02;;;;;;;16.35;4.68;;;;;;;31.77;40.39;99611.75;3102183;28;20746;-72
2023/07/23 06:54:37;;;;;;;17.48;4.93;;;;;;;31.86;40.06;99612.34;3102949;28;20112;-71
2023/07/23 06:56:09;;;;;;;18.58;5.80;;;;;;;31.92;40.15;99611.53;3102589;28;20474;-72
2023/07/23 06:57:40;;;;;;;17.27;5.25;;;;;;;32.02;39.90;99619.13;3102631;28;20053;-73
2023/07/23 06:59:14;;;;;;;15.95;5.65;;;;;;;32.10;39.50;99617.03;3102418;28;20570;-72
2023/07/23 07:00:45;;;;;;;15.27;4.93;;;;;;;32.16;39.04;99618.03;3102714;28;20157;-72
2023/07/23 07:02:16;;;;;;;14.85;4.82;;;;;;;32.20;38.71;99613.88;3091679;28;20626;-73
2023/07/23 07:03:47;;;;;;;15.18;4.93;;;;;;;32.27;38.65;99616.53;3090542;28;20054;-72
2023/07/23 07:05:19;;;;;;;21.02;4.97;;;;;;;32.35;38.65;99614.41;3099180;28;20050;-73
2023/07/23 07:06:50;;;;;;;15.40;4.90;;;;;;;32.45;38.57;99605.06;3102449;28;20120;-72
2023/07/23 07:08:22;;;;;;;12.30;5.40;;;;;;;32.51;38.33;99613.13;3102454;28;20107;-73